Terminal Aerodrome Forecast
Issued by NWS Sterling, VA

Home | Current Version | Previous Version | Text Only | Print | Product List | Glossary On
Versions: 1 2 3 4 5 6 7 8 9 10 11 12 13 14 15 16 17 18 19 20 21 22 23 24
000
FTUS41 KLWX 012332
TAFDCA
TAF
KDCA 012332Z 0200/0224 18007KT 5SM -FZRA BR OVC008
     FM020100 24006KT 6SM -FZDZ SCT007 OVC008
     FM020600 25006KT P6SM OVC008
     FM021000 28006KT P6SM OVC045
     FM021400 31011G18KT P6SM SCT150=

USA.gov is the U.S. government's official web portal to all federal, state and local government web resources and services.